^^
Datos históricos de la estación: Murcia-Puente Tocinos
Diario Informe para Agosto 14, 2020 Unidades:  Ambas    Ingés   Métrico
Diario Semanal Mensual Anual
  Máxima: Mínima: Promedio:
Temperatura: 91 °F /  32.8 °C 72 °F /  22.2 °C 81.5 °F /  27.5 °C
Punto de rocio: 70 °F /  21.1 °C 57.4 °F /  14.1 °C 64 °F /  17.8 °C
Humedad: 75% 38% 57%
Velocidad viento: 13mph /  20.9km/h - 5mph /  8km/h
Racha viento: 29mph /  46.7km/h - -
Viento- - ESE
Presión: 29.9 in /  1013.2 hPa 29.8 in /  1009.7 hPa -
Precipitación: 0 in /  0.0 mm    
 
 
Tabla de datos para Agosto 14, 2020
Hora Temperatura Punto de rocio Presión Viento Velocidad viento Racha viento Humedad Intensidad lluvia(por hora) Nubes
00:04 79.2 °F /  26.2 °C 68.7 °F /  20.4 °C 29.9in /  1012.5hPa NNE 5.9mph /  9.5km/h 8.5mph /  13.7km/h 70.8% 0in /  0.0mm
00:09 79 °F /  26.1 °C 69.3 °F /  20.7 °C 29.9in /  1012.6hPa NNE 4.7mph /  7.6km/h 8.1mph /  13km/h 72% 0in /  0.0mm
00:14 79 °F /  26.1 °C 69.4 °F /  20.8 °C 29.9in /  1012.6hPa North 4.7mph /  7.6km/h 8.1mph /  13km/h 72.8% 0in /  0.0mm
00:19 78.6 °F /  25.9 °C 69.3 °F /  20.7 °C 29.9in /  1012.6hPa NNE 4.7mph /  7.6km/h 7.4mph /  11.9km/h 73% 0in /  0.0mm
00:24 78.6 °F /  25.9 °C 69.4 °F /  20.8 °C 29.9in /  1012.7hPa NNE 4.6mph /  7.4km/h 7mph /  11.3km/h 73.7% 0in /  0.0mm
00:29 78.4 °F /  25.8 °C 69.6 °F /  20.9 °C 29.9in /  1012.7hPa NNO 4mph /  6.5km/h 6mph /  9.7km/h 74% 0in /  0.0mm
00:34 78.4 °F /  25.8 °C 69.4 °F /  20.8 °C 29.9in /  1012.7hPa NNO 3.8mph /  6.1km/h 6mph /  9.7km/h 74% 0in /  0.0mm
00:39 78.4 °F /  25.8 °C 69.8 °F /  21 °C 29.9in /  1012.7hPa NNO 2.9mph /  4.7km/h 6mph /  9.7km/h 74.6% 0in /  0.0mm
00:44 78.4 °F /  25.8 °C 70 °F /  21.1 °C 29.9in /  1012.7hPa North 3mph /  4.9km/h 5.9mph /  9.5km/h 75% 0in /  0.0mm
00:49 78.3 °F /  25.7 °C 69.8 °F /  21 °C 29.9in /  1012.7hPa North 3.6mph /  5.8km/h 6mph /  9.7km/h 75% 0in /  0.0mm
00:54 78.3 °F /  25.7 °C 69.6 °F /  20.9 °C 29.9in /  1012.7hPa North 3.5mph /  5.6km/h 5mph /  8km/h 75% 0in /  0.0mm
00:59 78.3 °F /  25.7 °C 69.6 °F /  20.9 °C 29.9in /  1012.7hPa North 2.9mph /  4.7km/h 5mph /  8km/h 75% 0in /  0.0mm
01:04 78.1 °F /  25.6 °C 69.6 °F /  20.9 °C 29.9in /  1012.7hPa NNE 2.9mph /  4.7km/h 5mph /  8km/h 75% 0in /  0.0mm
01:09 78.1 °F /  25.6 °C 69.4 °F /  20.8 °C 29.9in /  1012.7hPa NNO 2.9mph /  4.7km/h 5.4mph /  8.7km/h 75% 0in /  0.0mm
01:14 77.7 °F /  25.4 °C 69.3 °F /  20.7 °C 29.9in /  1012.7hPa NNO 2.9mph /  4.7km/h 5.8mph /  9.3km/h 75% 0in /  0.0mm
01:19 77.7 °F /  25.4 °C 69.3 °F /  20.7 °C 29.9in /  1012.7hPa NNO 3.1mph /  5km/h 6mph /  9.7km/h 75% 0in /  0.0mm
01:24 77.7 °F /  25.4 °C 69.3 °F /  20.7 °C 29.9in /  1012.7hPa NO 2.9mph /  4.6km/h 4.6mph /  7.4km/h 75% 0in /  0.0mm
01:29 77.5 °F /  25.3 °C 68.7 °F /  20.4 °C 29.9in /  1012.6hPa NNO 2mph /  3.2km/h 5mph /  8km/h 74.1% 0in /  0.0mm
01:34 77.4 °F /  25.2 °C 67.3 °F /  19.6 °C 29.9in /  1012.6hPa North 2.2mph /  3.5km/h 5.2mph /  8.4km/h 70.9% 0in /  0.0mm
01:39 77 °F /  25 °C 64.2 °F /  17.9 °C 29.9in /  1012.6hPa NNE 2.9mph /  4.7km/h 5.8mph /  9.3km/h 64.9% 0in /  0.0mm
01:44 76.6 °F /  24.8 °C 63.5 °F /  17.5 °C 29.9in /  1012.6hPa NE 2.9mph /  4.7km/h 6mph /  9.7km/h 64% 0in /  0.0mm
01:49 76.6 °F /  24.8 °C 63.5 °F /  17.5 °C 29.9in /  1012.6hPa ENE 3.1mph /  5km/h 6.2mph /  10km/h 64% 0in /  0.0mm
01:54 76.6 °F /  24.8 °C 63.5 °F /  17.5 °C 29.9in /  1012.6hPa ENE 3.1mph /  5km/h 6mph /  9.7km/h 63.9% 0in /  0.0mm
01:59 76.6 °F /  24.8 °C 63.1 °F /  17.3 °C 29.9in /  1012.6hPa ENE 3.1mph /  5km/h 6mph /  9.7km/h 63% 0in /  0.0mm
02:04 76.6 °F /  24.8 °C 62.4 °F /  16.9 °C 29.9in /  1012.6hPa Este 3mph /  4.9km/h 5.2mph /  8.4km/h 61.3% 0in /  0.0mm
02:09 76.8 °F /  24.9 °C 61.9 °F /  16.6 °C 29.9in /  1012.6hPa Este 2.9mph /  4.7km/h 5mph /  8km/h 60% 0in /  0.0mm
02:14 77 °F /  25 °C 60.4 °F /  15.8 °C 29.9in /  1012.6hPa Este 2.8mph /  4.5km/h 4mph /  6.4km/h 56.7% 0in /  0.0mm
02:19 77.2 °F /  25.1 °C 59.9 °F /  15.5 °C 29.9in /  1012.6hPa ENE 2.4mph /  3.9km/h 4mph /  6.4km/h 55.1% 0in /  0.0mm
02:24 77.4 °F /  25.2 °C 59.7 °F /  15.4 °C 29.9in /  1012.6hPa ENE 2.2mph /  3.5km/h 4mph /  6.4km/h 54.8% 0in /  0.0mm
02:29 77.4 °F /  25.2 °C 58.5 °F /  14.7 °C 29.9in /  1012.4hPa ESE 1.4mph /  2.2km/h 5mph /  8km/h 52% 0in /  0.0mm
02:34 77.4 °F /  25.2 °C 57.9 °F /  14.4 °C 29.9in /  1012.4hPa ENE 1.5mph /  2.4km/h 5mph /  8km/h 51.2% 0in /  0.0mm
02:39 77.4 °F /  25.2 °C 57.7 °F /  14.3 °C 29.9in /  1012.4hPa NE 2mph /  3.2km/h 3.5mph /  5.6km/h 50.8% 0in /  0.0mm
02:44 77.4 °F /  25.2 °C 57.7 °F /  14.3 °C 29.9in /  1012.4hPa NE 1.9mph /  3.1km/h 3mph /  4.8km/h 51% 0in /  0.0mm
02:49 77.4 °F /  25.2 °C 59.7 °F /  15.4 °C 29.9in /  1012.4hPa North 1.4mph /  2.2km/h 2.9mph /  4.7km/h 54.7% 0in /  0.0mm
02:54 77.4 °F /  25.2 °C 61.3 °F /  16.3 °C 29.9in /  1012.4hPa NO 1.1mph /  1.8km/h 3mph /  4.8km/h 57.9% 0in /  0.0mm
02:59 77.2 °F /  25.1 °C 61.3 °F /  16.3 °C 29.9in /  1012.3hPa Calm   2.9mph /  4.7km/h 58.1% 0in /  0.0mm
03:04 77 °F /  25 °C 61.2 °F /  16.2 °C 29.9in /  1012.3hPa NO 0.2mph /  0.4km/h 3.6mph /  5.8km/h 58.1% 0in /  0.0mm
03:09 76.8 °F /  24.9 °C 60.6 °F /  15.9 °C 29.9in /  1012.3hPa NO 1.4mph /  2.2km/h 4mph /  6.4km/h 57.6% 0in /  0.0mm
03:14 76.6 °F /  24.8 °C 59.7 °F /  15.4 °C 29.9in /  1012.1hPa NO 1.5mph /  2.4km/h 3.6mph /  5.8km/h 56% 0in /  0.0mm
03:19 76.5 °F /  24.7 °C 59.2 °F /  15.1 °C 29.9in /  1012.1hPa NNO 1.8mph /  2.9km/h 4mph /  6.4km/h 55.4% 0in /  0.0mm
03:24 76.1 °F /  24.5 °C 58.6 °F /  14.8 °C 29.9in /  1012.1hPa NNO 1.7mph /  2.8km/h 3mph /  4.8km/h 55% 0in /  0.0mm
03:29 75.9 °F /  24.4 °C 59 °F /  15 °C 29.9in /  1012.0hPa NNO 1.4mph /  2.2km/h 2.4mph /  3.9km/h 55.7% 0in /  0.0mm
03:34 75.9 °F /  24.4 °C 58.5 °F /  14.7 °C 29.9in /  1012.0hPa North 1.4mph /  2.2km/h 3.1mph /  5km/h 54.8% 0in /  0.0mm
03:39 75.9 °F /  24.4 °C 57.7 °F /  14.3 °C 29.9in /  1012.0hPa ENE 1.4mph /  2.2km/h 3.6mph /  5.8km/h 53.4% 0in /  0.0mm
03:44 75.7 °F /  24.3 °C 57.4 °F /  14.1 °C 29.9in /  1011.9hPa ENE 1.5mph /  2.4km/h 3.5mph /  5.6km/h 52.8% 0in /  0.0mm
03:49 75.7 °F /  24.3 °C 57.9 °F /  14.4 °C 29.9in /  1011.9hPa ENE 2mph /  3.2km/h 4.6mph /  7.4km/h 54.1% 0in /  0.0mm
03:54 75.7 °F /  24.3 °C 58.8 °F /  14.9 °C 29.9in /  1011.9hPa Este 2.1mph /  3.3km/h 5mph /  8km/h 55.9% 0in /  0.0mm
03:59 75.7 °F /  24.3 °C 58.8 °F /  14.9 °C 29.9in /  1011.9hPa Este 2.4mph /  3.9km/h 5mph /  8km/h 56% 0in /  0.0mm
04:04 75.6 °F /  24.2 °C 58.3 °F /  14.6 °C 29.9in /  1011.9hPa ONO 2.2mph /  3.5km/h 4mph /  6.4km/h 55% 0in /  0.0mm
04:09 75.4 °F /  24.1 °C 58.6 °F /  14.8 °C 29.9in /  1011.9hPa ONO 1.4mph /  2.2km/h 4mph /  6.4km/h 56% 0in /  0.0mm
04:14 75 °F /  23.9 °C 58.8 °F /  14.9 °C 29.9in /  1011.8hPa ONO 1.2mph /  1.9km/h 2.3mph /  3.7km/h 56.9% 0in /  0.0mm
04:19 75 °F /  23.9 °C 58.8 °F /  14.9 °C 29.9in /  1011.8hPa Calm   3.6mph /  5.8km/h 57% 0in /  0.0mm
04:24 74.8 °F /  23.8 °C 58.6 °F /  14.8 °C 29.9in /  1011.8hPa NO 0.2mph /  0.4km/h 4mph /  6.4km/h 57% 0in /  0.0mm
04:29 74.8 °F /  23.8 °C 58.6 °F /  14.8 °C 29.9in /  1011.8hPa NO 1.4mph /  2.2km/h 4mph /  6.4km/h 57% 0in /  0.0mm
04:34 74.8 °F /  23.8 °C 58.8 °F /  14.9 °C 29.9in /  1011.8hPa NO 1.4mph /  2.2km/h 2.4mph /  3.9km/h 57.7% 0in /  0.0mm
04:39 74.8 °F /  23.8 °C 59.2 °F /  15.1 °C 29.9in /  1011.8hPa NO 1.4mph /  2.3km/h 2.4mph /  3.9km/h 58% 0in /  0.0mm
04:44 74.8 °F /  23.8 °C 59 °F /  15 °C 29.9in /  1011.8hPa NO 1.2mph /  1.9km/h 2.3mph /  3.7km/h 58% 0in /  0.0mm
04:49 74.7 °F /  23.7 °C 58.8 °F /  14.9 °C 29.9in /  1011.8hPa Calm     58% 0in /  0.0mm
04:54 74.7 °F /  23.7 °C 59 °F /  15 °C 29.9in /  1011.8hPa Calm   1.4mph /  2.3km/h 58.3% 0in /  0.0mm
04:59 74.7 °F /  23.7 °C 59.4 °F /  15.2 °C 29.9in /  1011.6hPa Calm   2.4mph /  3.9km/h 59% 0in /  0.0mm
05:04 74.7 °F /  23.7 °C 59.5 °F /  15.3 °C 29.9in /  1011.6hPa NNO 0.2mph /  0.4km/h 2.4mph /  3.9km/h 59.1% 0in /  0.0mm
05:09 74.7 °F /  23.7 °C 59.5 °F /  15.3 °C 29.9in /  1011.7hPa NNE 1.4mph /  2.2km/h 4.7mph /  7.6km/h 59.4% 0in /  0.0mm
05:14 74.7 °F /  23.7 °C 59.4 °F /  15.2 °C 29.9in /  1011.7hPa ESE 1.5mph /  2.4km/h 5mph /  8km/h 59.2% 0in /  0.0mm
05:19 74.5 °F /  23.6 °C 59.2 °F /  15.1 °C 29.9in /  1011.7hPa ESE 2mph /  3.2km/h 5mph /  8km/h 59% 0in /  0.0mm
05:24 74.5 °F /  23.6 °C 59.5 °F /  15.3 °C 29.9in /  1011.7hPa ESE 2mph /  3.2km/h 4.6mph /  7.4km/h 59.8% 0in /  0.0mm
05:29 74.1 °F /  23.4 °C 59.5 °F /  15.3 °C 29.9in /  1011.6hPa ESE 2mph /  3.2km/h 5mph /  8km/h 60.3% 0in /  0.0mm
05:34 74.1 °F /  23.4 °C 59.5 °F /  15.3 °C 29.9in /  1011.6hPa ESE 1.9mph /  3km/h 3.5mph /  5.6km/h 60.5% 0in /  0.0mm
05:39 73.9 °F /  23.3 °C 59.5 °F /  15.3 °C 29.9in /  1011.6hPa ESE 1.4mph /  2.2km/h 3.5mph /  5.6km/h 61% 0in /  0.0mm
05:44 73.8 °F /  23.2 °C 60.1 °F /  15.6 °C 29.9in /  1011.5hPa ESE 1.5mph /  2.4km/h 5.2mph /  8.4km/h 62.2% 0in /  0.0mm
05:49 73.8 °F /  23.2 °C 60.4 °F /  15.8 °C 29.9in /  1011.5hPa SSE 2mph /  3.2km/h 5mph /  8km/h 63% 0in /  0.0mm
05:54 73.9 °F /  23.3 °C 60.4 °F /  15.8 °C 29.9in /  1011.5hPa SSE 2.2mph /  3.5km/h 5mph /  8km/h 63% 0in /  0.0mm
05:59 73.9 °F /  23.3 °C 61 °F /  16.1 °C 29.9in /  1011.5hPa SSE 2.9mph /  4.7km/h 4mph /  6.4km/h 63.9% 0in /  0.0mm
06:04 73.9 °F /  23.3 °C 61 °F /  16.1 °C 29.9in /  1011.5hPa SSE 2.7mph /  4.3km/h 4mph /  6.4km/h 64% 0in /  0.0mm
06:09 74.1 °F /  23.4 °C 61 °F /  16.1 °C 29.9in /  1011.7hPa SSE 1.8mph /  2.9km/h 4.6mph /  7.4km/h 63.6% 0in /  0.0mm
06:14 73.9 °F /  23.3 °C 60.6 °F /  15.9 °C 29.9in /  1011.7hPa SSE 1.9mph /  3km/h 5.4mph /  8.7km/h 63.2% 0in /  0.0mm
06:19 73.8 °F /  23.2 °C 61 °F /  16.1 °C 29.9in /  1011.7hPa SE 2mph /  3.2km/h 6mph /  9.7km/h 64% 0in /  0.0mm
06:24 73.8 °F /  23.2 °C 60.6 °F /  15.9 °C 29.9in /  1011.8hPa ESE 2.2mph /  3.5km/h 5.8mph /  9.3km/h 64% 0in /  0.0mm
06:29 73.4 °F /  23 °C 61 °F /  16.1 °C 29.9in /  1011.8hPa ENE 3.1mph /  5km/h 6mph /  9.7km/h 64.9% 0in /  0.0mm
06:34 73.4 °F /  23 °C 61.3 °F /  16.3 °C 29.9in /  1011.8hPa Oeste 2.9mph /  4.7km/h 4.6mph /  7.4km/h 65.9% 0in /  0.0mm
06:39 73.4 °F /  23 °C 61.9 °F /  16.6 °C 29.9in /  1012.0hPa SO 1.8mph /  2.9km/h 5.2mph /  8.4km/h 66.9% 0in /  0.0mm
06:44 73.4 °F /  23 °C 61.3 °F /  16.3 °C 29.9in /  1012.0hPa SSE 2.1mph /  3.3km/h 5mph /  8km/h 65.9% 0in /  0.0mm
06:49 73.2 °F /  22.9 °C 60.8 °F /  16 °C 29.9in /  1012.0hPa Este 2.9mph /  4.6km/h 5mph /  8km/h 65.4% 0in /  0.0mm
06:54 73 °F /  22.8 °C 61 °F /  16.1 °C 29.9in /  1012.2hPa Este 2.3mph /  3.7km/h 2mph /  3.2km/h 66% 0in /  0.0mm
06:59 72.9 °F /  22.7 °C 61.3 °F /  16.3 °C 29.9in /  1012.2hPa Calm     67% 0in /  0.0mm
07:04 72.9 °F /  22.7 °C 61.3 °F /  16.3 °C 29.9in /  1012.2hPa ONO 0.2mph /  0.4km/h 4.6mph /  7.4km/h 67% 0in /  0.0mm
07:09 72.9 °F /  22.7 °C 61.2 °F /  16.2 °C 29.9in /  1012.2hPa ONO 1.4mph /  2.2km/h 5mph /  8km/h 67% 0in /  0.0mm
07:14 72.5 °F /  22.5 °C 61 °F /  16.1 °C 29.9in /  1012.2hPa ONO 1.5mph /  2.4km/h 3mph /  4.8km/h 67% 0in /  0.0mm
07:19 72.3 °F /  22.4 °C 61.2 °F /  16.2 °C 29.9in /  1012.2hPa ONO 1.8mph /  2.9km/h 3mph /  4.8km/h 67.8% 0in /  0.0mm
07:24 72.1 °F /  22.3 °C 61 °F /  16.1 °C 29.9in /  1012.3hPa NO 1.7mph /  2.8km/h 2.4mph /  3.9km/h 68% 0in /  0.0mm
07:29 72 °F /  22.2 °C 61 °F /  16.1 °C 29.9in /  1012.3hPa North 1.4mph /  2.2km/h 4.3mph /  6.9km/h 68.1% 0in /  0.0mm
07:34 72 °F /  22.2 °C 60.3 °F /  15.7 °C 29.9in /  1012.3hPa ESE 1.5mph /  2.4km/h 5mph /  8km/h 66.8% 0in /  0.0mm
07:39 72 °F /  22.2 °C 59.7 °F /  15.4 °C 29.9in /  1012.4hPa ESE 2mph /  3.2km/h 5mph /  8km/h 65.3% 0in /  0.0mm
07:44 72 °F /  22.2 °C 59.5 °F /  15.3 °C 29.9in /  1012.4hPa ESE 2mph /  3.2km/h 3.6mph /  5.8km/h 65% 0in /  0.0mm
07:49 72.1 °F /  22.3 °C 60.1 °F /  15.6 °C 29.9in /  1012.4hPa ESE 2mph /  3.2km/h 4mph /  6.4km/h 65.7% 0in /  0.0mm
07:54 72.3 °F /  22.4 °C 60.3 °F /  15.7 °C 29.9in /  1012.5hPa ESE 2mph /  3.2km/h 4mph /  6.4km/h 66% 0in /  0.0mm
07:59 72.7 °F /  22.6 °C 60.6 °F /  15.9 °C 29.9in /  1012.5hPa ESE 2mph /  3.2km/h 2.3mph /  3.7km/h 66% 0in /  0.0mm
08:04 73 °F /  22.8 °C 60.8 °F /  16 °C 29.9in /  1012.5hPa ESE 1.6mph /  2.6km/h 3.6mph /  5.8km/h 65.7% 0in /  0.0mm
08:09 73.4 °F /  23 °C 60.8 °F /  16 °C 29.9in /  1012.7hPa Calm   4.6mph /  7.4km/h 64.9% 0in /  0.0mm
08:14 73.4 °F /  23 °C 59.9 °F /  15.5 °C 29.9in /  1012.7hPa Este 0.5mph /  0.8km/h 4.6mph /  7.4km/h 62.9% 0in /  0.0mm
08:19 73.2 °F /  22.9 °C 59.9 °F /  15.5 °C 29.9in /  1012.7hPa Este 2.9mph /  4.7km/h 5mph /  8km/h 63% 0in /  0.0mm
08:24 73.4 °F /  23 °C 59.9 °F /  15.5 °C 29.9in /  1012.8hPa Este 2.7mph /  4.3km/h 4mph /  6.4km/h 62.7% 0in /  0.0mm
08:29 73.8 °F /  23.2 °C 59.9 °F /  15.5 °C 29.9in /  1012.8hPa Este 2mph /  3.2km/h 4mph /  6.4km/h 62.1% 0in /  0.0mm
08:34 73.9 °F /  23.3 °C 60.1 °F /  15.6 °C 29.9in /  1012.8hPa Este 1.9mph /  3.1km/h 3mph /  4.8km/h 62% 0in /  0.0mm
08:39 74.7 °F /  23.7 °C 60.8 °F /  16 °C 29.9in /  1012.9hPa NE 1.4mph /  2.3km/h 3.5mph /  5.6km/h 62% 0in /  0.0mm
08:44 75.2 °F /  24 °C 61.2 °F /  16.2 °C 29.9in /  1012.9hPa NNE 1.4mph /  2.3km/h 3mph /  4.8km/h 61.8% 0in /  0.0mm
08:49 75.7 °F /  24.3 °C 61.3 °F /  16.3 °C 29.9in /  1012.9hPa NNE 1.8mph /  2.9km/h 3.6mph /  5.8km/h 61.1% 0in /  0.0mm
08:54 76.3 °F /  24.6 °C 61.5 °F /  16.4 °C 29.9in /  1012.9hPa NNE 1.7mph /  2.8km/h 4mph /  6.4km/h 60.2% 0in /  0.0mm
08:59 76.6 °F /  24.8 °C 61.7 °F /  16.5 °C 29.9in /  1012.9hPa NNE 1.4mph /  2.2km/h 4.6mph /  7.4km/h 59.7% 0in /  0.0mm
09:04 76.8 °F /  24.9 °C 61.7 °F /  16.5 °C 29.9in /  1012.9hPa NE 1.5mph /  2.4km/h 5mph /  8km/h 59.7% 0in /  0.0mm
09:09 76.8 °F /  24.9 °C 61.9 °F /  16.6 °C 29.9in /  1012.9hPa NE 2mph /  3.2km/h 5mph /  8km/h 60% 0in /  0.0mm
09:14 77.2 °F /  25.1 °C 62.2 °F /  16.8 °C 29.9in /  1012.9hPa NNE 1.9mph /  3.1km/h 2.9mph /  4.7km/h 60% 0in /  0.0mm
09:19 77.4 °F /  25.2 °C 62.4 °F /  16.9 °C 29.9in /  1012.9hPa NNE 1.4mph /  2.2km/h 3.5mph /  5.6km/h 60% 0in /  0.0mm
09:24 77.5 °F /  25.3 °C 62.6 °F /  17 °C 29.9in /  1013.0hPa Este 1.5mph /  2.4km/h 5.8mph /  9.3km/h 60% 0in /  0.0mm
09:29 77.4 °F /  25.2 °C 63.3 °F /  17.4 °C 29.9in /  1013.0hPa Sur 1.8mph /  2.9km/h 6mph /  9.7km/h 61.8% 0in /  0.0mm
09:34 77.7 °F /  25.4 °C 63.3 °F /  17.4 °C 29.9in /  1013.0hPa Este 1.7mph /  2.8km/h 4.6mph /  7.4km/h 61.4% 0in /  0.0mm
09:39 78.3 °F /  25.7 °C 63.7 °F /  17.6 °C 29.9in /  1013.0hPa Este 1.4mph /  2.2km/h 5mph /  8km/h 61% 0in /  0.0mm
09:44 78.3 °F /  25.7 °C 63.5 °F /  17.5 °C 29.9in /  1013.0hPa ESE 1.5mph /  2.4km/h 5.2mph /  8.4km/h 60.7% 0in /  0.0mm
09:49 78.1 °F /  25.6 °C 64.2 °F /  17.9 °C 29.9in /  1013.0hPa Este 2mph /  3.2km/h 5.2mph /  8.4km/h 62.4% 0in /  0.0mm
09:54 78.1 °F /  25.6 °C 64.8 °F /  18.2 °C 29.9in /  1013.1hPa Este 2.2mph /  3.5km/h 5mph /  8km/h 63.4% 0in /  0.0mm
09:59 78.4 °F /  25.8 °C 64.9 °F /  18.3 °C 29.9in /  1013.1hPa ESE 2.9mph /  4.7km/h 5mph /  8km/h 63.6% 0in /  0.0mm
10:04 78.8 °F /  26 °C 65.8 °F /  18.8 °C 29.9in /  1013.1hPa ESE 2.7mph /  4.3km/h 5mph /  8km/h 64.6% 0in /  0.0mm
10:09 79.2 °F /  26.2 °C 66.6 °F /  19.2 °C 29.9in /  1013.1hPa Este 2mph /  3.2km/h 5mph /  8km/h 65.2% 0in /  0.0mm
10:14 79.3 °F /  26.3 °C 67.3 °F /  19.6 °C 29.9in /  1013.1hPa Este 2.1mph /  3.3km/h 5mph /  8km/h 66.2% 0in /  0.0mm
10:19 79.7 °F /  26.5 °C 67.5 °F /  19.7 °C 29.9in /  1013.1hPa SE 2.4mph /  3.9km/h 5mph /  8km/h 66.1% 0in /  0.0mm
10:24 79.9 °F /  26.6 °C 67.6 °F /  19.8 °C 29.9in /  1013.1hPa Este 2.5mph /  4km/h 6.9mph /  11.1km/h 66.4% 0in /  0.0mm
10:29 79.3 °F /  26.3 °C 67.8 °F /  19.9 °C 29.9in /  1013.1hPa SE 3.1mph /  5km/h 5.8mph /  9.3km/h 67.8% 0in /  0.0mm
10:34 79.7 °F /  26.5 °C 68.7 °F /  20.4 °C 29.9in /  1013.1hPa North 3mph /  4.9km/h 5mph /  8km/h 69.3% 0in /  0.0mm
10:39 80.1 °F /  26.7 °C 68.9 °F /  20.5 °C 29.9in /  1013.1hPa NNO 2.9mph /  4.7km/h 6.4mph /  10.3km/h 69% 0in /  0.0mm
10:44 80.4 °F /  26.9 °C 69.1 °F /  20.6 °C 29.9in /  1013.1hPa NE 2.9mph /  4.7km/h 8.1mph /  13km/h 68.7% 0in /  0.0mm
10:49 80.2 °F /  26.8 °C 69.1 °F /  20.6 °C 29.9in /  1013.1hPa ESE 3.1mph /  5km/h 8mph /  12.9km/h 69% 0in /  0.0mm
10:54 80.2 °F /  26.8 °C 69.1 °F /  20.6 °C 29.9in /  1013.2hPa North 3.1mph /  5km/h 9.2mph /  14.8km/h 68.8% 0in /  0.0mm
10:59 80.4 °F /  26.9 °C 68.7 °F /  20.4 °C 29.9in /  1013.2hPa NE 3.1mph /  5km/h 9mph /  14.5km/h 67.5% 0in /  0.0mm
11:04 80.4 °F /  26.9 °C 68.5 °F /  20.3 °C 29.9in /  1013.2hPa NNE 3.4mph /  5.5km/h 9.2mph /  14.8km/h 67% 0in /  0.0mm
11:09 80.8 °F /  27.1 °C 68.5 °F /  20.3 °C 29.9in /  1013.2hPa North 4.7mph /  7.6km/h 8.1mph /  13km/h 66.7% 0in /  0.0mm
11:14 81 °F /  27.2 °C 68.5 °F /  20.3 °C 29.9in /  1013.1hPa NE 4.5mph /  7.3km/h 8mph /  12.9km/h 66% 0in /  0.0mm
11:19 81.5 °F /  27.5 °C 68.4 °F /  20.2 °C 29.9in /  1013.1hPa ENE 3.6mph /  5.8km/h 8.5mph /  13.7km/h 64.4% 0in /  0.0mm
11:24 82 °F /  27.8 °C 68 °F /  20 °C 29.9in /  1013.1hPa NNE 3.7mph /  5.9km/h 9mph /  14.5km/h 62.5% 0in /  0.0mm
11:29 82.4 °F /  28 °C 68.2 °F /  20.1 °C 29.9in /  1012.9hPa NNE 4mph /  6.4km/h 7mph /  11.3km/h 62.3% 0in /  0.0mm
11:34 83.1 °F /  28.4 °C 68.9 °F /  20.5 °C 29.9in /  1012.9hPa North 3.9mph /  6.3km/h 9.2mph /  14.8km/h 62.4% 0in /  0.0mm
11:39 83.3 °F /  28.5 °C 69.4 °F /  20.8 °C 29.9in /  1012.9hPa North 3.6mph /  5.8km/h 9.2mph /  14.8km/h 62.8% 0in /  0.0mm
11:44 83.5 °F /  28.6 °C 69.4 °F /  20.8 °C 29.9in /  1012.9hPa NNE 3.9mph /  6.3km/h 10.4mph /  16.7km/h 62.6% 0in /  0.0mm
11:49 83.5 °F /  28.6 °C 69.1 °F /  20.6 °C 29.9in /  1012.9hPa North 5.2mph /  8.4km/h 10mph /  16.1km/h 62% 0in /  0.0mm
11:54 83.5 °F /  28.6 °C 69.3 °F /  20.7 °C 29.9in /  1012.9hPa North 5.2mph /  8.4km/h 10.4mph /  16.7km/h 62.4% 0in /  0.0mm
11:59 83.8 °F /  28.8 °C 69.6 °F /  20.9 °C 29.9in /  1012.8hPa NNE 5.4mph /  8.7km/h 10.4mph /  16.7km/h 62.6% 0in /  0.0mm
12:04 84.2 °F /  29 °C 69.3 °F /  20.7 °C 29.9in /  1012.8hPa North 5.7mph /  9.1km/h 11.5mph /  18.5km/h 60.8% 0in /  0.0mm
12:09 84.6 °F /  29.2 °C 68.9 °F /  20.5 °C 29.9in /  1012.8hPa NNE 6.4mph /  10.3km/h 12mph /  19.3km/h 59.2% 0in /  0.0mm
12:14 85.1 °F /  29.5 °C 68.2 °F /  20.1 °C 29.9in /  1012.6hPa NE 6.3mph /  10.2km/h 12.7mph /  20.4km/h 56.9% 0in /  0.0mm
12:19 85.5 °F /  29.7 °C 67.8 °F /  19.9 °C 29.9in /  1012.6hPa NE 6.2mph /  10km/h 13mph /  20.9km/h 55.8% 0in /  0.0mm
12:24 85.6 °F /  29.8 °C 67.3 °F /  19.6 °C 29.9in /  1012.6hPa NNE 6.2mph /  9.9km/h 11.2mph /  18km/h 54.5% 0in /  0.0mm
12:29 85.6 °F /  29.8 °C 67.1 °F /  19.5 °C 29.9in /  1012.6hPa NNE 5.9mph /  9.5km/h 15.6mph /  25.1km/h 54% 0in /  0.0mm
12:34 85.8 °F /  29.9 °C 67.1 °F /  19.5 °C 29.9in /  1012.6hPa NNE 6.2mph /  10km/h 16.1mph /  25.9km/h 53.8% 0in /  0.0mm
12:39 86.4 °F /  30.2 °C 66.7 °F /  19.3 °C 29.9in /  1012.6hPa NNE 7.6mph /  12.2km/h 16.1mph /  25.9km/h 52.2% 0in /  0.0mm
12:44 86.5 °F /  30.3 °C 66.4 °F /  19.1 °C 29.9in /  1012.4hPa NNE 8mph /  12.8km/h 17.5mph /  28.2km/h 51.2% 0in /  0.0mm
12:49 86.7 °F /  30.4 °C 66.2 °F /  19 °C 29.9in /  1012.4hPa NE 9.7mph /  15.6km/h 17mph /  27.4km/h 50.6% 0in /  0.0mm
12:54 87.3 °F /  30.7 °C 66.4 °F /  19.1 °C 29.9in /  1012.4hPa NNE 9.2mph /  14.8km/h 14mph /  22.5km/h 50.1% 0in /  0.0mm
12:59 87.4 °F /  30.8 °C 66.2 °F /  19 °C 29.9in /  1012.3hPa NNE 7.4mph /  11.9km/h 16.1mph /  25.9km/h 49.4% 0in /  0.0mm
13:04 87.4 °F /  30.8 °C 66.4 °F /  19.1 °C 29.9in /  1012.3hPa NNE 8mph /  12.9km/h 17.3mph /  27.8km/h 49.7% 0in /  0.0mm
13:09 87.4 °F /  30.8 °C 66.6 °F /  19.2 °C 29.9in /  1012.3hPa NNE 10.7mph /  17.2km/h 21.9mph /  35.2km/h 50.1% 0in /  0.0mm
13:14 87.4 °F /  30.8 °C 66.6 °F /  19.2 °C 29.9in /  1012.1hPa NNE 11mph /  17.7km/h 20.8mph /  33.5km/h 50% 0in /  0.0mm
13:19 87.6 °F /  30.9 °C 66.9 °F /  19.4 °C 29.9in /  1012.1hPa NNE 12.3mph /  19.8km/h 21mph /  33.8km/h 50.2% 0in /  0.0mm
13:24 87.6 °F /  30.9 °C 67.1 °F /  19.5 °C 29.9in /  1012.1hPa NNE 12.2mph /  19.7km/h 21.3mph /  34.3km/h 50.7% 0in /  0.0mm
13:29 87.6 °F /  30.9 °C 66.7 °F /  19.3 °C 29.9in /  1011.9hPa NNE 11.8mph /  19km/h 21mph /  33.8km/h 49.9% 0in /  0.0mm
13:34 88 °F /  31.1 °C 66.7 °F /  19.3 °C 29.9in /  1011.9hPa NNE 11.8mph /  19km/h 23.7mph /  38.1km/h 49.6% 0in /  0.0mm
13:39 88.2 °F /  31.2 °C 66.9 °F /  19.4 °C 29.9in /  1011.9hPa NNE 11.8mph /  19km/h 24.2mph /  38.9km/h 49.4% 0in /  0.0mm
13:44 88.2 °F /  31.2 °C 66 °F /  18.9 °C 29.9in /  1011.7hPa NNE 12.1mph /  19.4km/h 22mph /  35.4km/h 48.1% 0in /  0.0mm
13:49 88.5 °F /  31.4 °C 66.2 °F /  19 °C 29.9in /  1011.7hPa NNE 13mph /  20.9km/h 21mph /  33.8km/h 47.7% 0in /  0.0mm
13:54 88.5 °F /  31.4 °C 66.7 °F /  19.3 °C 29.9in /  1011.7hPa NNE 12.2mph /  19.7km/h 17.5mph /  28.2km/h 48.7% 0in /  0.0mm
13:59 88.9 °F /  31.6 °C 66.7 °F /  19.3 °C 29.9in /  1011.7hPa NNE 9.7mph /  15.6km/h 17mph /  27.4km/h 48.1% 0in /  0.0mm
14:04 88.5 °F /  31.4 °C 66.6 °F /  19.2 °C 29.9in /  1011.7hPa NNE 10mph /  16.1km/h 20.7mph /  33.3km/h 48.5% 0in /  0.0mm
14:09 88.5 °F /  31.4 °C 66.7 °F /  19.3 °C 29.9in /  1011.7hPa NNE 11.4mph /  18.4km/h 21mph /  33.8km/h 48.7% 0in /  0.0mm
14:14 88.3 °F /  31.3 °C 66.6 °F /  19.2 °C 29.9in /  1011.7hPa NE 11.6mph /  18.6km/h 19.7mph /  31.7km/h 48.5% 0in /  0.0mm
14:19 88.5 °F /  31.4 °C 66.6 °F /  19.2 °C 29.9in /  1011.7hPa NNE 12.3mph /  19.8km/h 20.4mph /  32.8km/h 48.3% 0in /  0.0mm
14:24 88.3 °F /  31.3 °C 66.7 °F /  19.3 °C 29.9in /  1011.7hPa NNE 12.1mph /  19.5km/h 21mph /  33.8km/h 49% 0in /  0.0mm
14:29 88.7 °F /  31.5 °C 65.3 °F /  18.5 °C 29.9in /  1011.6hPa NNE 11.2mph /  18km/h 23mph /  37km/h 46% 0in /  0.0mm
14:34 89.6 °F /  32 °C 63.9 °F /  17.7 °C 29.9in /  1011.6hPa NE 11.2mph /  18.1km/h 23mph /  37km/h 42.5% 0in /  0.0mm
14:39 90 °F /  32.2 °C 67.1 °F /  19.5 °C 29.9in /  1011.6hPa NE 11.4mph /  18.4km/h 18mph /  29km/h 47.1% 0in /  0.0mm
14:44 89.2 °F /  31.8 °C 66.4 °F /  19.1 °C 29.9in /  1011.6hPa NE 11.1mph /  17.8km/h 28.8mph /  46.3km/h 47.1% 0in /  0.0mm
14:49 89.4 °F /  31.9 °C 66.7 °F /  19.3 °C 29.9in /  1011.6hPa NE 9.7mph /  15.6km/h 29mph /  46.7km/h 47.5% 0in /  0.0mm
14:54 88.9 °F /  31.6 °C 67.3 °F /  19.6 °C 29.9in /  1011.6hPa ENE 9.9mph /  16km/h 21mph /  33.8km/h 49% 0in /  0.0mm
14:59 89.1 °F /  31.7 °C 67.3 °F /  19.6 °C 29.9in /  1011.4hPa NE 11.2mph /  18km/h 21mph /  33.8km/h 49% 0in /  0.0mm
15:04 89.2 °F /  31.8 °C 67.8 °F /  19.9 °C 29.9in /  1011.4hPa NE 11mph /  17.7km/h 21mph /  33.8km/h 49.2% 0in /  0.0mm
15:09 88.9 °F /  31.6 °C 68.2 °F /  20.1 °C 29.9in /  1011.4hPa NNE 10.2mph /  16.4km/h 24.2mph /  38.9km/h 50.5% 0in /  0.0mm
15:14 88.5 °F /  31.4 °C 68.2 °F /  20.1 °C 29.9in /  1011.3hPa ENE 10.5mph /  16.9km/h 24.2mph /  38.9km/h 51.1% 0in /  0.0mm
15:19 89.1 °F /  31.7 °C 68.2 °F /  20.1 °C 29.9in /  1011.3hPa NE 11.4mph /  18.4km/h 24mph /  38.6km/h 50.3% 0in /  0.0mm
15:24 88.9 °F /  31.6 °C 67.8 °F /  19.9 °C 29.9in /  1011.4hPa ENE 11.4mph /  18.3km/h 22.3mph /  35.9km/h 49.9% 0in /  0.0mm
15:29 89.1 °F /  31.7 °C 68 °F /  20 °C 29.9in /  1011.4hPa NE 11.2mph /  18km/h 22mph /  35.4km/h 50.1% 0in /  0.0mm
15:34 89.2 °F /  31.8 °C 67.6 °F /  19.8 °C 29.9in /  1011.4hPa NNE 10.8mph /  17.4km/h 25.3mph /  40.7km/h 49% 0in /  0.0mm
15:39 89.2 °F /  31.8 °C 66.6 °F /  19.2 °C 29.9in /  1011.4hPa ENE 9.2mph /  14.8km/h 25mph /  40.2km/h 47.2% 0in /  0.0mm
15:44 89.8 °F /  32.1 °C 65.1 °F /  18.4 °C 29.9in /  1011.2hPa ESE 8.9mph /  14.3km/h 13.8mph /  22.2km/h 44.2% 0in /  0.0mm
15:49 90.3 °F /  32.4 °C 64.6 °F /  18.1 °C 29.9in /  1011.2hPa Este 7.6mph /  12.2km/h 12mph /  19.3km/h 42.7% 0in /  0.0mm
15:54 90.7 °F /  32.6 °C 64.6 °F /  18.1 °C 29.9in /  1011.2hPa Este 7.3mph /  11.8km/h 13mph /  20.9km/h 42.4% 0in /  0.0mm
15:59 90.9 °F /  32.7 °C 65.5 °F /  18.6 °C 29.9in /  1010.9hPa Este 6.2mph /  10km/h 13mph /  20.9km/h 43.4% 0in /  0.0mm
16:04 91 °F /  32.8 °C 65.1 °F /  18.4 °C 29.9in /  1010.9hPa Este 6.5mph /  10.5km/h 12.7mph /  20.4km/h 42.6% 0in /  0.0mm
16:09 90.7 °F /  32.6 °C 64.4 °F /  18 °C 29.9in /  1010.9hPa ESE 7.6mph /  12.2km/h 15mph /  24.1km/h 42% 0in /  0.0mm
16:14 90.3 °F /  32.4 °C 64.4 °F /  18 °C 29.8in /  1010.7hPa ENE 7.5mph /  12km/h 16.8mph /  27km/h 42.4% 0in /  0.0mm
16:19 90.1 °F /  32.3 °C 64.4 °F /  18 °C 29.8in /  1010.7hPa Este 6.9mph /  11.1km/h 17.3mph /  27.8km/h 42.5% 0in /  0.0mm
16:24 90.1 °F /  32.3 °C 63.9 °F /  17.7 °C 29.8in /  1010.7hPa ESE 7.4mph /  11.9km/h 19mph /  30.6km/h 41.9% 0in /  0.0mm
16:29 90.3 °F /  32.4 °C 64 °F /  17.8 °C 29.8in /  1010.4hPa ESE 10mph /  16.1km/h 19mph /  30.6km/h 42% 0in /  0.0mm
16:34 90.3 °F /  32.4 °C 64 °F /  17.8 °C 29.8in /  1010.4hPa ESE 9.4mph /  15.1km/h 14mph /  22.5km/h 41.8% 0in /  0.0mm
16:39 90.3 °F /  32.4 °C 63.5 °F /  17.5 °C 29.8in /  1010.4hPa ESE 6.4mph /  10.3km/h 15mph /  24.1km/h 41% 0in /  0.0mm
16:44 90.9 °F /  32.7 °C 63.7 °F /  17.6 °C 29.8in /  1010.3hPa ESE 6.8mph /  10.9km/h 15.2mph /  24.5km/h 40.9% 0in /  0.0mm
16:49 90.9 °F /  32.7 °C 64 °F /  17.8 °C 29.8in /  1010.3hPa ESE 8.5mph /  13.7km/h 15mph /  24.1km/h 41.1% 0in /  0.0mm
16:54 91 °F /  32.8 °C 63.7 °F /  17.6 °C 29.8in /  1010.3hPa ESE 8.5mph /  13.7km/h 15mph /  24.1km/h 40.6% 0in /  0.0mm
16:59 90.9 °F /  32.7 °C 64.2 °F /  17.9 °C 29.8in /  1010.1hPa ESE 8.5mph /  13.7km/h 15mph /  24.1km/h 41.4% 0in /  0.0mm
17:04 90.7 °F /  32.6 °C 64 °F /  17.8 °C 29.8in /  1010.1hPa ESE 8.8mph /  14.1km/h 15mph /  24.1km/h 41.4% 0in /  0.0mm
17:09 90.3 °F /  32.4 °C 64.2 °F /  17.9 °C 29.8in /  1010.1hPa Este 9.7mph /  15.6km/h 15mph /  24.1km/h 42% 0in /  0.0mm
17:14 90.1 °F /  32.3 °C 63.9 °F /  17.7 °C 29.8in /  1010.0hPa ESE 9.4mph /  15.2km/h 13.8mph /  22.2km/h 41.8% 0in /  0.0mm
17:19 90.5 °F /  32.5 °C 64.2 °F /  17.9 °C 29.8in /  1010.0hPa Este 8.1mph /  13km/h 14mph /  22.5km/h 42% 0in /  0.0mm
17:24 90.3 °F /  32.4 °C 64 °F /  17.8 °C 29.8in /  1010.0hPa Este 8.1mph /  13km/h 14mph /  22.5km/h 42% 0in /  0.0mm
17:29 90.1 °F /  32.3 °C 64.4 °F /  18 °C 29.8in /  1010.0hPa Este 8.1mph /  13km/h 14mph /  22.5km/h 42.5% 0in /  0.0mm
17:34 90.3 °F /  32.4 °C 64 °F /  17.8 °C 29.8in /  1010.0hPa Este 7.8mph /  12.5km/h 12.7mph /  20.4km/h 41.8% 0in /  0.0mm
17:39 90.7 °F /  32.6 °C 63.7 °F /  17.6 °C 29.8in /  1010.0hPa ESE 6.4mph /  10.3km/h 13.8mph /  22.2km/h 41% 0in /  0.0mm
17:44 90.7 °F /  32.6 °C 63.5 °F /  17.5 °C 29.8in /  1009.9hPa Este 6.6mph /  10.7km/h 14mph /  22.5km/h 40.7% 0in /  0.0mm
17:49 90.7 °F /  32.6 °C 63.5 °F /  17.5 °C 29.8in /  1009.9hPa Este 7.6mph /  12.2km/h 13mph /  20.9km/h 40.6% 0in /  0.0mm
17:54 90.9 °F /  32.7 °C 63.9 °F /  17.7 °C 29.8in /  1009.9hPa NE 7.2mph /  11.6km/h 11.8mph /  19km/h 41% 0in /  0.0mm
17:59 90.9 °F /  32.7 °C 64 °F /  17.8 °C 29.8in /  1009.8hPa ENE 5.9mph /  9.5km/h 12.7mph /  20.4km/h 41.2% 0in /  0.0mm
18:04 90.9 °F /  32.7 °C 63.9 °F /  17.7 °C 29.8in /  1009.8hPa NE 5.9mph /  9.5km/h 13mph /  20.9km/h 41% 0in /  0.0mm
18:09 90.7 °F /  32.6 °C 63.7 °F /  17.6 °C 29.8in /  1009.8hPa NE 5.9mph /  9.5km/h 12mph /  19.3km/h 40.9% 0in /  0.0mm
18:14 90.5 °F /  32.5 °C 63.1 °F /  17.3 °C 29.8in /  1009.7hPa ENE 6.1mph /  9.8km/h 15mph /  24.1km/h 40.5% 0in /  0.0mm
18:19 90.1 °F /  32.3 °C 62.8 °F /  17.1 °C 29.8in /  1009.7hPa ENE 6.9mph /  11.1km/h 15mph /  24.1km/h 40.3% 0in /  0.0mm
18:24 90 °F /  32.2 °C 63 °F /  17.2 °C 29.8in /  1009.7hPa NE 6.9mph /  11.1km/h 15mph /  24.1km/h 40.9% 0in /  0.0mm
18:29 89.4 °F /  31.9 °C 62.2 °F /  16.8 °C 29.8in /  1009.7hPa ENE 6.9mph /  11.1km/h 15mph /  24.1km/h 40.4% 0in /  0.0mm
18:34 89.2 °F /  31.8 °C 61.9 °F /  16.6 °C 29.8in /  1009.7hPa NE 7.3mph /  11.8km/h 23.5mph /  37.8km/h 40.1% 0in /  0.0mm
18:39 89.2 °F /  31.8 °C 62.2 °F /  16.8 °C 29.8in /  1009.8hPa ENE 9.2mph /  14.8km/h 23mph /  37km/h 40.6% 0in /  0.0mm
18:44 89.4 °F /  31.9 °C 62.4 °F /  16.9 °C 29.8in /  1009.8hPa Este 8.5mph /  13.7km/h 10.4mph /  16.7km/h 40.7% 0in /  0.0mm
18:49 89.4 °F /  31.9 °C 61.9 °F /  16.6 °C 29.8in /  1009.8hPa ESE 5.9mph /  9.5km/h 10mph /  16.1km/h 40% 0in /  0.0mm
18:54 89.8 °F /  32.1 °C 62.1 °F /  16.7 °C 29.8in /  1009.8hPa ESE 6mph /  9.7km/h 12.7mph /  20.4km/h 39.8% 0in /  0.0mm
18:59 90 °F /  32.2 °C 61.5 °F /  16.4 °C 29.8in /  1009.8hPa Este 6.4mph /  10.3km/h 13mph /  20.9km/h 38.8% 0in /  0.0mm
19:04 89.8 °F /  32.1 °C 61.5 °F /  16.4 °C 29.8in /  1009.8hPa ENE 6.5mph /  10.5km/h 12.7mph /  20.4km/h 39% 0in /  0.0mm
19:09 89.4 °F /  31.9 °C 61.3 °F /  16.3 °C 29.8in /  1010.0hPa ENE 6.9mph /  11.1km/h 13mph /  20.9km/h 39.1% 0in /  0.0mm
19:14 89.4 °F /  31.9 °C 60.8 °F /  16 °C 29.8in /  1010.0hPa Este 6.6mph /  10.7km/h 10.4mph /  16.7km/h 38.4% 0in /  0.0mm
19:19 89.4 °F /  31.9 °C 60.4 °F /  15.8 °C 29.8in /  1010.0hPa ESE 5.4mph /  8.7km/h 13.5mph /  21.7km/h 38% 0in /  0.0mm
19:24 89.2 °F /  31.8 °C 60.8 °F /  16 °C 29.8in /  1010.0hPa Este 5.8mph /  9.4km/h 14mph /  22.5km/h 38.7% 0in /  0.0mm
19:29 89.1 °F /  31.7 °C 61.2 °F /  16.2 °C 29.8in /  1010.0hPa Este 7.4mph /  11.9km/h 14mph /  22.5km/h 39.2% 0in /  0.0mm
19:34 89.1 °F /  31.7 °C 61.7 °F /  16.5 °C 29.8in /  1010.0hPa ENE 7.1mph /  11.5km/h 14mph /  22.5km/h 40.4% 0in /  0.0mm
19:39 88.5 °F /  31.4 °C 61.9 °F /  16.6 °C 29.8in /  1010.1hPa ENE 6.4mph /  10.3km/h 15.2mph /  24.5km/h 41.2% 0in /  0.0mm
19:44 88.2 °F /  31.2 °C 62.1 °F /  16.7 °C 29.8in /  1010.1hPa Este 6.8mph /  10.9km/h 15mph /  24.1km/h 42% 0in /  0.0mm
19:49 87.8 °F /  31 °C 62.6 °F /  17 °C 29.8in /  1010.1hPa ENE 8.1mph /  13km/h 15mph /  24.1km/h 43.1% 0in /  0.0mm
19:54 87.4 °F /  30.8 °C 63 °F /  17.2 °C 29.8in /  1010.4hPa Este 8mph /  12.9km/h 15mph /  24.1km/h 44% 0in /  0.0mm
19:59 87.3 °F /  30.7 °C 62.2 °F /  16.8 °C 29.8in /  1010.4hPa Este 7.6mph /  12.2km/h 15.6mph /  25.1km/h 43.3% 0in /  0.0mm
20:04 87.1 °F /  30.6 °C 62.4 °F /  16.9 °C 29.8in /  1010.4hPa Este 7.8mph /  12.6km/h 17.3mph /  27.8km/h 43.7% 0in /  0.0mm
20:09 86.7 °F /  30.4 °C 62.6 °F /  17 °C 29.8in /  1010.7hPa ENE 8.7mph /  14km/h 17mph /  27.4km/h 44.7% 0in /  0.0mm
20:14 86.4 °F /  30.2 °C 62.6 °F /  17 °C 29.8in /  1010.7hPa Este 8.1mph /  13.1km/h 16.1mph /  25.9km/h 45% 0in /  0.0mm
20:19 86 °F /  30 °C 62.2 °F /  16.8 °C 29.8in /  1010.7hPa Este 6.4mph /  10.3km/h 16mph /  25.7km/h 45% 0in /  0.0mm
20:24 85.8 °F /  29.9 °C 61.5 °F /  16.4 °C 29.9in /  1010.9hPa Este 6.6mph /  10.7km/h 15mph /  24.1km/h 44.3% 0in /  0.0mm
20:29 85.8 °F /  29.9 °C 61 °F /  16.1 °C 29.9in /  1010.9hPa ENE 7.6mph /  12.2km/h 12mph /  19.3km/h 43.4% 0in /  0.0mm
20:34 85.6 °F /  29.8 °C 61.2 °F /  16.2 °C 29.9in /  1010.9hPa ENE 7.5mph /  12km/h 12mph /  19.3km/h 44% 0in /  0.0mm
20:39 85.3 °F /  29.6 °C 60.6 °F /  15.9 °C 29.9in /  1011.0hPa ENE 6.9mph /  11.1km/h 13.8mph /  22.2km/h 43.5% 0in /  0.0mm
20:44 85.1 °F /  29.5 °C 60.1 °F /  15.6 °C 29.9in /  1011.0hPa ENE 6.8mph /  10.9km/h 14mph /  22.5km/h 42.9% 0in /  0.0mm
20:49 84.9 °F /  29.4 °C 59.4 °F /  15.2 °C 29.9in /  1011.0hPa NE 6.4mph /  10.3km/h 9.2mph /  14.8km/h 42.1% 0in /  0.0mm
20:54 84.7 °F /  29.3 °C 58.3 °F /  14.6 °C 29.9in /  1011.4hPa NE 6.1mph /  9.8km/h 9.2mph /  14.8km/h 40.7% 0in /  0.0mm
20:59 84.6 °F /  29.2 °C 59.2 °F /  15.1 °C 29.9in /  1011.4hPa NE 4.7mph /  7.6km/h 9mph /  14.5km/h 42.3% 0in /  0.0mm
21:04 84.4 °F /  29.1 °C 61.7 °F /  16.5 °C 29.9in /  1011.4hPa NNE 4.8mph /  7.7km/h 10.7mph /  17.2km/h 46.6% 0in /  0.0mm
21:09 83.7 °F /  28.7 °C 63.5 °F /  17.5 °C 29.9in /  1011.7hPa NNE 5.2mph /  8.4km/h 11.2mph /  18km/h 50.6% 0in /  0.0mm
21:14 83.1 °F /  28.4 °C 64 °F /  17.8 °C 29.9in /  1011.7hPa NNE 5.6mph /  9km/h 12.7mph /  20.4km/h 52.9% 0in /  0.0mm
21:19 82.6 °F /  28.1 °C 64.6 °F /  18.1 °C 29.9in /  1011.7hPa NE 7.4mph /  11.9km/h 13mph /  20.9km/h 54.7% 0in /  0.0mm
21:24 82.2 °F /  27.9 °C 64.9 °F /  18.3 °C 29.9in /  1011.9hPa NE 7.3mph /  11.8km/h 13mph /  20.9km/h 55.9% 0in /  0.0mm
21:29 82 °F /  27.8 °C 64.9 °F /  18.3 °C 29.9in /  1011.9hPa NE 6.9mph /  11.1km/h 14mph /  22.5km/h 56.5% 0in /  0.0mm
21:34 81.9 °F /  27.7 °C 65.7 °F /  18.7 °C 29.9in /  1011.9hPa NE 7mph /  11.3km/h 14mph /  22.5km/h 58.2% 0in /  0.0mm
21:39 81.7 °F /  27.6 °C 65.8 °F /  18.8 °C 29.9in /  1012.2hPa NE 7.6mph /  12.2km/h 13mph /  20.9km/h 58.7% 0in /  0.0mm
21:44 81.3 °F /  27.4 °C 66 °F /  18.9 °C 29.9in /  1012.2hPa NE 7.4mph /  11.9km/h 13mph /  20.9km/h 59.8% 0in /  0.0mm
21:49 81.3 °F /  27.4 °C 66.6 °F /  19.2 °C 29.9in /  1012.2hPa ENE 6.4mph /  10.3km/h 8.1mph /  13km/h 60.9% 0in /  0.0mm
21:54 81.1 °F /  27.3 °C 67.1 °F /  19.5 °C 29.9in /  1012.4hPa NE 6.3mph /  10.1km/h 10.4mph /  16.7km/h 62.4% 0in /  0.0mm
21:59 81 °F /  27.2 °C 67.5 °F /  19.7 °C 29.9in /  1012.4hPa NE 5.4mph /  8.7km/h 11.8mph /  19km/h 63.6% 0in /  0.0mm
22:04 80.8 °F /  27.1 °C 67.8 °F /  19.9 °C 29.9in /  1012.4hPa NE 5.6mph /  9km/h 12mph /  19.3km/h 64.7% 0in /  0.0mm
22:09 80.8 °F /  27.1 °C 67.8 °F /  19.9 °C 29.9in /  1012.6hPa ENE 6.2mph /  10km/h 11mph /  17.7km/h 65% 0in /  0.0mm
22:14 80.6 °F /  27 °C 67.8 °F /  19.9 °C 29.9in /  1012.6hPa ENE 6.2mph /  9.9km/h 10mph /  16.1km/h 65.1% 0in /  0.0mm
22:19 80.6 °F /  27 °C 67.8 °F /  19.9 °C 29.9in /  1012.6hPa Este 5.9mph /  9.5km/h 11.5mph /  18.5km/h 65.4% 0in /  0.0mm
22:24 80.4 °F /  26.9 °C 67.6 °F /  19.8 °C 29.9in /  1012.7hPa Este 5.8mph /  9.3km/h 12mph /  19.3km/h 65.1% 0in /  0.0mm
22:29 80.4 °F /  26.9 °C 67.3 °F /  19.6 °C 29.9in /  1012.7hPa Este 5.4mph /  8.7km/h 11.2mph /  18km/h 64.3% 0in /  0.0mm
22:34 80.6 °F /  27 °C 67.3 °F /  19.6 °C 29.9in /  1012.7hPa ENE 5.5mph /  8.9km/h 12mph /  19.3km/h 63.7% 0in /  0.0mm
22:39 80.6 °F /  27 °C 67.3 °F /  19.6 °C 29.9in /  1012.8hPa ENE 6.2mph /  10km/h 12mph /  19.3km/h 64% 0in /  0.0mm
22:44 80.4 °F /  26.9 °C 67.3 °F /  19.6 °C 29.9in /  1012.8hPa NE 5.8mph /  9.3km/h 8.1mph /  13km/h 64.2% 0in /  0.0mm
22:49 80.2 °F /  26.8 °C 67.1 °F /  19.5 °C 29.9in /  1012.8hPa NE 4.3mph /  6.9km/h 8.1mph /  13km/h 64.1% 0in /  0.0mm
22:54 80.2 °F /  26.8 °C 67.6 °F /  19.8 °C 29.9in /  1013.0hPa NNE 4.3mph /  7km/h 8mph /  12.9km/h 65.5% 0in /  0.0mm
22:59 79.9 °F /  26.6 °C 67.8 °F /  19.9 °C 29.9in /  1013.0hPa NNE 4.7mph /  7.6km/h 8.1mph /  13km/h 67.1% 0in /  0.0mm
23:04 79.3 °F /  26.3 °C 68.4 °F /  20.2 °C 29.9in /  1013.0hPa NNE 4.8mph /  7.8km/h 8.1mph /  13km/h 69% 0in /  0.0mm
23:09 79.2 °F /  26.2 °C 68.5 °F /  20.3 °C 29.9in /  1013.0hPa NNE 5.4mph /  8.7km/h 8.5mph /  13.7km/h 70.4% 0in /  0.0mm
23:14 78.8 °F /  26 °C 68.5 °F /  20.3 °C 29.9in /  1013.0hPa NNE 5.5mph /  8.9km/h 9.7mph /  15.6km/h 71.2% 0in /  0.0mm
23:19 78.4 °F /  25.8 °C 68.7 °F /  20.4 °C 29.9in /  1013.0hPa NNE 5.9mph /  9.5km/h 10mph /  16.1km/h 72% 0in /  0.0mm
23:24 78.4 °F /  25.8 °C 68.7 °F /  20.4 °C 29.9in /  1013.1hPa NNE 5.8mph /  9.4km/h 9.2mph /  14.8km/h 72% 0in /  0.0mm
23:29 78.3 °F /  25.7 °C 68.7 °F /  20.4 °C 29.9in /  1013.1hPa NNE 5.4mph /  8.7km/h 9mph /  14.5km/h 72.6% 0in /  0.0mm
23:34 78.3 °F /  25.7 °C 68.4 °F /  20.2 °C 29.9in /  1013.1hPa NE 5.3mph /  8.5km/h 7.4mph /  11.9km/h 71.7% 0in /  0.0mm
23:39 78.3 °F /  25.7 °C 68.5 °F /  20.3 °C 29.9in /  1013.1hPa NNE 4.7mph /  7.6km/h 8.1mph /  13km/h 72.3% 0in /  0.0mm
23:44 78.3 °F /  25.7 °C 68.9 °F /  20.5 °C 29.9in /  1013.1hPa NNE 4.7mph /  7.6km/h 8.1mph /  13km/h 73% 0in /  0.0mm
23:49 77.9 °F /  25.5 °C 68.9 °F /  20.5 °C 29.9in /  1013.1hPa NNE 4.7mph /  7.6km/h 8mph /  12.9km/h 74% 0in /  0.0mm
23:54 77.7 °F /  25.4 °C 68.7 °F /  20.4 °C 29.9in /  1013.1hPa NE 4.6mph /  7.4km/h 7mph /  11.3km/h 74% 0in /  0.0mm
23:59 77.7 °F /  25.4 °C 68.9 °F /  20.5 °C 29.9in /  1013.1hPa NE 4mph /  6.5km/h 9.2mph /  14.8km/h 74.4% 0in /  0.0mm
Murcia-Puente Tocinos, España
Compliments of Weather Underground - 3 mb

La estación de MeteoMurcia.com, publica sus datos en los siguientes proyectos:

Weather Underground PWS IMURCIAP2 Meteoclimatic www.awekas.at

W3Counter
Web Analytics